createdAt,value
2022-07-30T00:01:34.394Z,98210.31
2022-07-30T00:04:03.074Z,98211.09
2022-07-30T00:06:30.097Z,98200.59
2022-07-30T00:08:56.770Z,98196.19
2022-07-30T00:11:27.340Z,98199.91
2022-07-30T00:13:54.644Z,98202.59
2022-07-30T00:16:21.760Z,98222.22
2022-07-30T00:18:48.503Z,98212.75
2022-07-30T00:21:20.197Z,98235.22
2022-07-30T00:24:02.520Z,98210.81
2022-07-30T00:26:29.369Z,98221.31
2022-07-30T00:28:56.657Z,98240.31
2022-07-30T00:31:23.322Z,98203.72
2022-07-30T00:33:50.021Z,98240.38
2022-07-30T00:36:16.928Z,98232.41
2022-07-30T00:38:43.702Z,98220.53
2022-07-30T00:41:10.500Z,98217.53
2022-07-30T00:43:37.237Z,98224.78
2022-07-30T00:46:04.182Z,98234.16
2022-07-30T00:48:31.032Z,98247.59
2022-07-30T00:50:57.798Z,98231.91
2022-07-30T00:53:24.591Z,98253.75
2022-07-30T00:55:51.482Z,98239.78
2022-07-30T00:58:18.181Z,98237.91
2022-07-30T01:00:45.120Z,98218.72
2022-07-30T01:03:11.860Z,98204.72
2022-07-30T01:05:38.468Z,98217.25
2022-07-30T01:08:05.075Z,98231.09
2022-07-30T01:10:31.719Z,98226.38
2022-07-30T01:12:59.306Z,98239.38
2022-07-30T01:15:27.105Z,98203.34
2022-07-30T01:17:56.885Z,98216.28
2022-07-30T01:20:28.853Z,98193.25
2022-07-30T01:23:08.244Z,98195.75
2022-07-30T01:25:56.220Z,98232.78
2022-07-30T01:28:31.349Z,98222.97
2022-07-30T01:30:59.201Z,98252.59
2022-07-30T01:33:27.909Z,98240.09
2022-07-30T01:35:56.835Z,98246.88
2022-07-30T01:38:25.639Z,98244.81
2022-07-30T01:40:54.757Z,98228.75
2022-07-30T01:43:24.064Z,98238.44
2022-07-30T01:45:53.238Z,98247.28
2022-07-30T01:48:22.417Z,98215.38
2022-07-30T01:50:52.728Z,98232.69
2022-07-30T01:53:24.032Z,98235.38
2022-07-30T01:55:51.987Z,98251.47
2022-07-30T01:58:21.741Z,98226.38
2022-07-30T02:00:50.873Z,98256.88
2022-07-30T02:03:18.396Z,98240.00
2022-07-30T02:05:52.539Z,98250.31
2022-07-30T02:08:35.227Z,98256.69
2022-07-30T02:11:07.615Z,98251.78
2022-07-30T02:13:43.680Z,98251.56
2022-07-30T02:16:31.702Z,98256.09
2022-07-30T02:19:06.776Z,98253.22
2022-07-30T02:21:37.856Z,98246.03
2022-07-30T02:24:18.397Z,98247.47
2022-07-30T02:26:49.610Z,98259.03
2022-07-30T02:29:18.509Z,98252.88
2022-07-30T02:31:45.875Z,98246.06
2022-07-30T02:34:14.115Z,98252.25
2022-07-30T02:36:43.384Z,98256.59
2022-07-30T02:39:15.061Z,98236.78
2022-07-30T02:41:49.232Z,98255.34
2022-07-30T02:44:20.352Z,98258.63
2022-07-30T02:46:49.499Z,98259.88
2022-07-30T02:49:19.623Z,98237.38
2022-07-30T02:51:48.396Z,98227.94
2022-07-30T02:54:17.874Z,98268.13
2022-07-30T02:56:47.803Z,98248.13
2022-07-30T02:59:16.399Z,98233.91
2022-07-30T03:01:44.229Z,98256.75
2022-07-30T03:04:12.061Z,98248.50
2022-07-30T03:06:40.491Z,98258.78
2022-07-30T03:09:09.931Z,98228.91
2022-07-30T03:11:37.187Z,98262.53
2022-07-30T03:14:03.952Z,98262.50
2022-07-30T03:16:33.649Z,98254.06
2022-07-30T03:19:02.738Z,98252.00
2022-07-30T03:21:35.763Z,98245.56
2022-07-30T03:24:05.156Z,98226.00
2022-07-30T03:26:33.761Z,98260.00
2022-07-30T03:29:01.605Z,98249.06
2022-07-30T03:31:36.524Z,98217.72
2022-07-30T03:34:06.500Z,98268.88
2022-07-30T03:36:35.041Z,98254.84
2022-07-30T03:39:03.273Z,98253.84
2022-07-30T03:41:31.304Z,98230.47
2022-07-30T03:43:59.856Z,98264.34
2022-07-30T03:46:27.943Z,98227.66
2022-07-30T03:48:55.278Z,98241.22
2022-07-30T03:51:22.248Z,98241.81
2022-07-30T03:53:51.620Z,98260.59
2022-07-30T03:56:18.541Z,98261.22
2022-07-30T03:58:45.496Z,98235.50
2022-07-30T04:01:12.544Z,98230.34
2022-07-30T04:03:39.542Z,98235.44
2022-07-30T04:06:06.479Z,98254.00
2022-07-30T04:08:33.216Z,98243.47
2022-07-30T04:10:59.873Z,98271.72
2022-07-30T04:13:26.507Z,98264.28
2022-07-30T04:16:40.882Z,98263.63
2022-07-30T04:18:53.740Z,98264.63
2022-07-30T04:21:23.225Z,98270.00
2022-07-30T04:24:04.474Z,98283.66
2022-07-30T04:26:36.949Z,98243.38
2022-07-30T04:29:07.315Z,98280.09
2022-07-30T04:31:38.474Z,98272.66
2022-07-30T04:34:08.102Z,98291.25
2022-07-30T04:36:35.935Z,98295.16
2022-07-30T04:39:04.138Z,98291.41
2022-07-30T04:41:35.419Z,98274.09
2022-07-30T04:44:16.392Z,98301.91
2022-07-30T04:46:43.106Z,98255.69
2022-07-30T04:49:11.630Z,98304.53
2022-07-30T04:51:38.694Z,98311.31
2022-07-30T04:54:09.005Z,98297.72
2022-07-30T04:56:50.192Z,98293.56
2022-07-30T04:59:23.714Z,98303.91
2022-07-30T05:01:52.521Z,98317.34
2022-07-30T05:04:22.653Z,98320.72
2022-07-30T05:06:50.061Z,98296.97
2022-07-30T05:09:17.679Z,98321.97
2022-07-30T05:11:51.328Z,98292.69
2022-07-30T05:14:18.010Z,98327.53
2022-07-30T05:16:44.651Z,98314.81
2022-07-30T05:19:11.924Z,98329.22
2022-07-30T05:21:38.580Z,98339.09
2022-07-30T05:24:06.191Z,98320.34
2022-07-30T05:26:33.026Z,98328.63
2022-07-30T05:28:59.691Z,98320.00
2022-07-30T05:31:26.426Z,98328.28
2022-07-30T05:33:57.530Z,98324.97
2022-07-30T05:36:27.096Z,98331.97
2022-07-30T05:38:53.783Z,98346.84
2022-07-30T05:41:32.235Z,98338.63
2022-07-30T05:44:00.809Z,98351.81
2022-07-30T05:46:28.058Z,98316.53
2022-07-30T05:48:54.777Z,98359.47
2022-07-30T05:51:22.305Z,98329.97
2022-07-30T05:53:49.348Z,98365.44
2022-07-30T05:56:16.445Z,98330.38
2022-07-30T05:58:43.539Z,98358.00
2022-07-30T06:01:10.258Z,98367.44
2022-07-30T06:03:38.734Z,98352.00
2022-07-30T06:06:05.723Z,98347.22
2022-07-30T06:08:32.479Z,98343.50
2022-07-30T06:10:59.331Z,98370.28
2022-07-30T06:13:26.105Z,98364.75
2022-07-30T06:15:52.910Z,98341.00
2022-07-30T06:18:19.920Z,98373.19
2022-07-30T06:20:54.496Z,98360.19
2022-07-30T06:23:21.934Z,98375.66
2022-07-30T06:25:49.003Z,98355.22
2022-07-30T06:28:36.432Z,98377.78
2022-07-30T06:31:03.491Z,98380.03
2022-07-30T06:33:30.224Z,98354.19
2022-07-30T06:35:56.838Z,98362.06
2022-07-30T06:38:23.485Z,98370.78
2022-07-30T06:40:50.264Z,98348.84
2022-07-30T06:43:19.066Z,98334.06
2022-07-30T06:45:45.752Z,98368.09
2022-07-30T06:48:12.415Z,98353.47
2022-07-30T06:50:39.049Z,98361.88
2022-07-30T06:53:05.586Z,98376.78
2022-07-30T06:55:32.143Z,98371.19
2022-07-30T06:57:58.834Z,98357.34
2022-07-30T07:00:25.533Z,98371.22
2022-07-30T07:02:52.074Z,98367.72
2022-07-30T07:05:18.889Z,98369.88
2022-07-30T07:07:56.581Z,98366.97
2022-07-30T07:10:25.841Z,98366.56
2022-07-30T07:12:52.528Z,98373.28
2022-07-30T07:15:19.341Z,98366.44
2022-07-30T07:17:49.145Z,98362.84
2022-07-30T07:20:15.781Z,98372.09
2022-07-30T07:22:42.343Z,98366.06
2022-07-30T07:25:09.232Z,98364.31
2022-07-30T07:27:37.239Z,98375.34
2022-07-30T07:30:06.219Z,98367.63
2022-07-30T07:32:34.663Z,98366.56
2022-07-30T07:35:01.728Z,98370.53
2022-07-30T07:37:28.381Z,98372.47
2022-07-30T07:39:54.971Z,98375.75
2022-07-30T07:42:22.200Z,98376.13
2022-07-30T07:44:48.899Z,98364.94
2022-07-30T07:47:15.534Z,98351.84
2022-07-30T07:49:42.237Z,98361.91
2022-07-30T07:52:09.215Z,98359.19
2022-07-30T07:54:36.223Z,98355.50
2022-07-30T07:57:10.515Z,98353.03
2022-07-30T07:59:41.462Z,98363.22
2022-07-30T08:02:08.939Z,98339.63
2022-07-30T08:04:36.707Z,98363.19
2022-07-30T08:07:04.391Z,98350.03
2022-07-30T08:09:42.637Z,98362.84
2022-07-30T08:12:12.294Z,98356.13
2022-07-30T08:14:39.201Z,98356.56
2022-07-30T08:17:06.377Z,98347.72
2022-07-30T08:19:34.071Z,98347.38
2022-07-30T08:22:00.741Z,98348.56
2022-07-30T08:24:27.559Z,98347.00
2022-07-30T08:26:54.439Z,98356.63
2022-07-30T08:29:21.245Z,98355.94
2022-07-30T08:31:50.644Z,98352.25
2022-07-30T08:34:18.202Z,98326.38
2022-07-30T08:36:44.978Z,98332.91
2022-07-30T08:39:14.369Z,98338.00
2022-07-30T08:41:42.412Z,98351.66
2022-07-30T08:44:13.096Z,98358.47
2022-07-30T08:46:42.525Z,98355.75
2022-07-30T08:49:16.039Z,98357.34
2022-07-30T08:51:42.786Z,98352.06
2022-07-30T08:54:10.029Z,98357.63
2022-07-30T08:56:37.260Z,98352.97
2022-07-30T08:59:04.466Z,98357.16
2022-07-30T09:01:31.044Z,98359.84
2022-07-30T09:03:57.919Z,98354.31
2022-07-30T09:06:24.615Z,98348.25
2022-07-30T09:08:51.185Z,98353.41
2022-07-30T09:11:17.842Z,98356.75
2022-07-30T09:13:45.121Z,98360.03
2022-07-30T09:16:24.058Z,98351.81
2022-07-30T09:18:51.879Z,98356.34
2022-07-30T09:21:27.462Z,98352.41
2022-07-30T09:23:58.130Z,98353.25
2022-07-30T09:26:25.305Z,98357.19
2022-07-30T09:28:52.840Z,98346.59
2022-07-30T09:31:20.726Z,98351.81
2022-07-30T09:33:47.967Z,98340.44
2022-07-30T09:36:17.312Z,98328.19
2022-07-30T09:38:53.915Z,98344.88
2022-07-30T09:41:39.815Z,98349.75
2022-07-30T09:44:07.347Z,98332.81
2022-07-30T09:46:51.916Z,98333.34
2022-07-30T09:49:21.187Z,98331.38
2022-07-30T09:51:56.663Z,98326.97
2022-07-30T09:54:51.163Z,98342.81
2022-07-30T09:57:26.538Z,98326.84
2022-07-30T09:59:59.932Z,98343.41
2022-07-30T10:02:32.520Z,98334.03
2022-07-30T10:05:15.624Z,98325.34
2022-07-30T10:08:02.587Z,98328.41
2022-07-30T10:10:31.716Z,98327.22
2022-07-30T10:13:04.458Z,98327.91
2022-07-30T10:15:38.038Z,98315.22
2022-07-30T10:18:06.694Z,98324.91
2022-07-30T10:20:35.634Z,98307.88
2022-07-30T10:23:07.786Z,98322.50
2022-07-30T10:25:49.676Z,98320.50
2022-07-30T10:28:24.087Z,98316.22
2022-07-30T10:30:56.090Z,98307.78
2022-07-30T10:33:35.187Z,98312.53
2022-07-30T10:36:04.947Z,98297.44
2022-07-30T10:38:39.079Z,98312.06
2022-07-30T10:41:44.541Z,98312.31
2022-07-30T10:44:40.718Z,98306.78
2022-07-30T10:47:14.098Z,98308.03
2022-07-30T10:49:43.323Z,98302.44
2022-07-30T10:52:10.848Z,98303.19
2022-07-30T10:54:45.254Z,98298.47
2022-07-30T10:57:22.584Z,98303.34
2022-07-30T11:00:03.939Z,98304.44
2022-07-30T11:02:35.401Z,98296.00
2022-07-30T11:05:17.791Z,98297.31
2022-07-30T11:07:47.365Z,98294.00
2022-07-30T11:10:37.539Z,98291.63
2022-07-30T11:13:09.682Z,98276.75
2022-07-30T11:16:08.789Z,98291.88
2022-07-30T11:19:56.707Z,98289.56
2022-07-30T11:22:44.471Z,98296.78
2022-07-30T11:25:50.212Z,98297.47
2022-07-30T11:28:40.974Z,98293.75
2022-07-30T11:31:30.599Z,98292.66
2022-07-30T11:34:20.347Z,98292.03
2022-07-30T11:37:19.130Z,98290.81
2022-07-30T11:39:55.277Z,98300.53
2022-07-30T11:42:29.021Z,98290.97
2022-07-30T11:45:18.141Z,98300.41
2022-07-30T11:47:50.190Z,98288.63
2022-07-30T11:50:27.545Z,98283.13
2022-07-30T11:53:02.191Z,98286.78
2022-07-30T11:55:38.936Z,98288.16
2022-07-30T11:58:08.703Z,98280.31
2022-07-30T12:00:41.185Z,98284.28
2022-07-30T12:03:11.476Z,98272.47
2022-07-30T12:05:38.887Z,98271.38
2022-07-30T12:08:06.287Z,98277.56
2022-07-30T12:10:35.974Z,98282.63
2022-07-30T12:13:16.543Z,98263.34
2022-07-30T12:15:46.224Z,98277.22
2022-07-30T12:18:29.473Z,98251.16
2022-07-30T12:21:16.323Z,98269.84
2022-07-30T12:24:10.344Z,98271.97
2022-07-30T12:26:37.214Z,98268.75
2022-07-30T12:29:13.625Z,98268.44
2022-07-30T12:31:41.647Z,98243.88
2022-07-30T12:34:25.265Z,98255.50
2022-07-30T12:36:53.038Z,98259.03
2022-07-30T12:39:25.269Z,98259.72
2022-07-30T12:41:53.843Z,98257.75
2022-07-30T12:44:40.753Z,98259.91
2022-07-30T12:47:20.351Z,98255.66
2022-07-30T12:49:49.884Z,98256.72
2022-07-30T12:52:41.417Z,98252.69
2022-07-30T12:55:11.566Z,98254.13
2022-07-30T12:58:07.621Z,98248.28
2022-07-30T13:00:44.157Z,98252.25
2022-07-30T13:03:27.947Z,98238.50
2022-07-30T13:05:56.552Z,98245.41
2022-07-30T13:08:51.210Z,98247.19
2022-07-30T13:11:19.912Z,98232.69
2022-07-30T13:13:47.692Z,98240.28
2022-07-30T13:16:14.845Z,98238.22
2022-07-30T13:18:42.211Z,98232.31
2022-07-30T13:21:09.362Z,98230.69
2022-07-30T13:23:36.976Z,98233.13
2022-07-30T13:26:03.961Z,98226.94
2022-07-30T13:28:32.062Z,98230.91
2022-07-30T13:30:58.953Z,98228.88
2022-07-30T13:33:25.920Z,98221.28
2022-07-30T13:35:52.921Z,98227.44
2022-07-30T13:38:19.604Z,98236.50
2022-07-30T13:40:46.210Z,98224.19
2022-07-30T13:43:12.815Z,98221.00
2022-07-30T13:45:39.434Z,98221.97
2022-07-30T13:48:06.330Z,98211.72
2022-07-30T13:50:33.744Z,98227.63
2022-07-30T13:53:02.489Z,98230.75
2022-07-30T13:55:29.937Z,98210.94
2022-07-30T13:57:57.136Z,98217.56
2022-07-30T14:00:24.705Z,98213.91
2022-07-30T14:02:51.638Z,98201.34
2022-07-30T14:05:18.345Z,98212.44
2022-07-30T14:07:45.144Z,98207.03
2022-07-30T14:10:13.180Z,98205.03
2022-07-30T14:12:40.148Z,98205.44
2022-07-30T14:15:07.557Z,98205.38
2022-07-30T14:17:34.402Z,98200.91
2022-07-30T14:20:01.298Z,98200.84
2022-07-30T14:22:28.032Z,98189.81
2022-07-30T14:24:54.923Z,98188.38
2022-07-30T14:27:21.716Z,98181.34
2022-07-30T14:29:48.889Z,98187.97
2022-07-30T14:32:18.656Z,98181.63
2022-07-30T14:34:49.501Z,98193.78
2022-07-30T14:37:16.943Z,98192.97
2022-07-30T14:39:43.984Z,98173.09
2022-07-30T14:42:11.316Z,98178.47
2022-07-30T14:44:37.980Z,98183.81
2022-07-30T14:47:05.373Z,98185.41
2022-07-30T14:49:32.236Z,98172.53
2022-07-30T14:51:59.075Z,98173.94
2022-07-30T14:54:27.879Z,98170.88
2022-07-30T14:56:58.201Z,98179.06
2022-07-30T14:59:27.542Z,98172.19
2022-07-30T15:01:55.488Z,98174.69
2022-07-30T15:04:23.112Z,98172.16
2022-07-30T15:06:49.930Z,98169.97
2022-07-30T15:09:21.492Z,98172.75
2022-07-30T15:12:23.686Z,98151.84
2022-07-30T15:14:38.123Z,98167.13
2022-07-30T15:17:06.069Z,98163.94
2022-07-30T15:19:33.942Z,98153.03
2022-07-30T15:22:02.400Z,98156.84
2022-07-30T15:24:30.451Z,98164.13
2022-07-30T15:26:57.214Z,98161.00
2022-07-30T15:29:24.355Z,98156.59
2022-07-30T15:31:55.649Z,98163.19
2022-07-30T15:34:22.525Z,98161.88
2022-07-30T15:36:49.179Z,98141.59
2022-07-30T15:39:15.831Z,98138.03
2022-07-30T15:41:42.689Z,98168.13
2022-07-30T15:44:09.271Z,98161.69
2022-07-30T15:46:36.169Z,98160.88
2022-07-30T15:49:03.359Z,98165.94
2022-07-30T15:51:32.634Z,98163.97
2022-07-30T15:53:59.820Z,98147.09
2022-07-30T15:56:28.634Z,98158.03
2022-07-30T15:58:58.771Z,98148.50
2022-07-30T16:01:25.706Z,98161.91
2022-07-30T16:03:54.724Z,98158.19
2022-07-30T16:06:21.641Z,98169.56
2022-07-30T16:08:48.323Z,98144.22
2022-07-30T16:11:14.883Z,98154.00
2022-07-30T16:13:42.749Z,98152.00
2022-07-30T16:16:09.373Z,98155.09
2022-07-30T16:18:35.949Z,98149.16
2022-07-30T16:21:02.664Z,98146.88
2022-07-30T16:23:36.261Z,98124.19
2022-07-30T16:26:03.847Z,98143.19
2022-07-30T16:28:31.064Z,98148.34
2022-07-30T16:30:58.365Z,98140.44
2022-07-30T16:33:25.027Z,98135.59
2022-07-30T16:35:54.992Z,98133.06
2022-07-30T16:38:23.271Z,98115.28
2022-07-30T16:40:50.675Z,98135.56
2022-07-30T16:43:19.722Z,98137.09
2022-07-30T16:45:47.255Z,98126.75
2022-07-30T16:48:14.057Z,98132.38
2022-07-30T16:50:42.291Z,98137.13
2022-07-30T16:53:13.784Z,98118.78
2022-07-30T16:55:41.807Z,98133.38
2022-07-30T16:58:09.312Z,98126.88
2022-07-30T17:00:37.059Z,98136.91
2022-07-30T17:03:04.129Z,98131.06
2022-07-30T17:05:31.128Z,98121.66
2022-07-30T17:07:58.379Z,98131.03
2022-07-30T17:10:26.681Z,98131.84
2022-07-30T17:12:57.050Z,98115.13
2022-07-30T17:15:32.241Z,98125.25
2022-07-30T17:18:03.135Z,98131.22
2022-07-30T17:20:30.563Z,98137.59
2022-07-30T17:22:57.517Z,98134.56
2022-07-30T17:25:27.952Z,98127.59
2022-07-30T17:27:58.538Z,98131.97
2022-07-30T17:30:27.417Z,98132.06
2022-07-30T17:32:54.206Z,98117.13
2022-07-30T17:35:21.310Z,98111.28
2022-07-30T17:37:48.020Z,98137.56
2022-07-30T17:40:27.454Z,98131.63
2022-07-30T17:43:03.520Z,98136.38
2022-07-30T17:45:31.163Z,98103.56
2022-07-30T17:47:58.018Z,98119.22
2022-07-30T17:50:24.888Z,98132.84
2022-07-30T17:52:51.614Z,98138.00
2022-07-30T17:55:18.372Z,98102.38
2022-07-30T17:57:45.135Z,98123.06
2022-07-30T18:00:12.749Z,98123.06
2022-07-30T18:02:39.503Z,98138.03
2022-07-30T18:05:06.781Z,98121.53
2022-07-30T18:07:33.497Z,98117.25
2022-07-30T18:10:00.237Z,98153.53
2022-07-30T18:12:27.073Z,98146.72
2022-07-30T18:14:55.160Z,98151.91
2022-07-30T18:17:21.959Z,98135.34
2022-07-30T18:19:48.833Z,98158.66
2022-07-30T18:22:16.026Z,98147.41
2022-07-30T18:24:55.114Z,98160.97
2022-07-30T18:27:21.943Z,98161.38
2022-07-30T18:29:48.785Z,98157.91
2022-07-30T18:32:15.710Z,98155.91
2022-07-30T18:34:42.418Z,98156.28
2022-07-30T18:37:10.227Z,98169.53
2022-07-30T18:39:37.090Z,98165.53
2022-07-30T18:42:04.452Z,98172.09
2022-07-30T18:44:31.701Z,98164.53
2022-07-30T18:46:58.663Z,98159.22
2022-07-30T18:49:40.884Z,98155.19
2022-07-30T18:52:08.053Z,98164.75
2022-07-30T18:54:35.975Z,98168.91
2022-07-30T18:57:02.682Z,98167.31
2022-07-30T18:59:29.536Z,98154.28
2022-07-30T19:01:56.169Z,98162.22
2022-07-30T19:04:22.864Z,98168.53
2022-07-30T19:06:49.514Z,98176.53
2022-07-30T19:09:17.876Z,98174.38
2022-07-30T19:11:47.986Z,98177.09
2022-07-30T19:14:15.353Z,98173.28
2022-07-30T19:16:44.052Z,98172.00
2022-07-30T19:19:13.566Z,98172.28
2022-07-30T19:21:40.733Z,98175.56
2022-07-30T19:24:07.456Z,98168.75
2022-07-30T19:26:34.143Z,98183.22
2022-07-30T19:29:00.727Z,98168.50
2022-07-30T19:31:27.321Z,98178.88
2022-07-30T19:33:53.884Z,98186.47
2022-07-30T19:36:23.288Z,98190.28
2022-07-30T19:38:50.373Z,98191.34
2022-07-30T19:41:17.042Z,98190.28
2022-07-30T19:43:55.763Z,98194.91
2022-07-30T19:46:25.277Z,98203.88
2022-07-30T19:48:52.185Z,98204.97
2022-07-30T19:51:20.523Z,98203.03
2022-07-30T19:53:48.193Z,98207.41
2022-07-30T19:56:14.956Z,98215.31
2022-07-30T19:58:42.765Z,98214.75
2022-07-30T20:01:14.419Z,98222.09
2022-07-30T20:03:42.064Z,98226.41
2022-07-30T20:06:15.397Z,98230.78
2022-07-30T20:08:44.727Z,98212.75
2022-07-30T20:11:14.064Z,98246.44
2022-07-30T20:13:49.309Z,98245.03
2022-07-30T20:16:17.513Z,98253.41
2022-07-30T20:18:46.273Z,98234.03
2022-07-30T20:21:15.593Z,98241.31
2022-07-30T20:23:44.726Z,98245.06
2022-07-30T20:26:16.876Z,98244.22
2022-07-30T20:28:52.381Z,98262.97
2022-07-30T20:31:19.685Z,98255.56
2022-07-30T20:33:49.478Z,98270.44
2022-07-30T20:36:18.121Z,98261.13
2022-07-30T20:38:47.130Z,98256.44
2022-07-30T20:41:14.673Z,98264.50
2022-07-30T20:43:45.847Z,98272.91
2022-07-30T20:46:13.839Z,98254.28
2022-07-30T20:48:42.270Z,98269.75
2022-07-30T20:51:11.683Z,98273.16
2022-07-30T20:53:38.301Z,98276.28
2022-07-30T20:56:05.078Z,98272.66
2022-07-30T20:58:31.638Z,98273.69
2022-07-30T21:01:00.598Z,98277.28
2022-07-30T21:03:31.695Z,98269.78
2022-07-30T21:05:58.852Z,98279.06
2022-07-30T21:08:26.582Z,98281.94
2022-07-30T21:10:53.509Z,98282.44
2022-07-30T21:13:22.344Z,98283.97
2022-07-30T21:16:01.916Z,98266.06
2022-07-30T21:18:30.864Z,98275.28
2022-07-30T21:20:57.749Z,98284.19
2022-07-30T21:23:25.160Z,98284.31
2022-07-30T21:26:00.393Z,98265.84
2022-07-30T21:28:29.574Z,98269.41
2022-07-30T21:30:57.211Z,98287.53
2022-07-30T21:33:24.465Z,98285.81
2022-07-30T21:35:57.932Z,98281.63
2022-07-30T21:38:26.592Z,98273.91
2022-07-30T21:40:53.542Z,98288.53
2022-07-30T21:43:29.477Z,98275.28
2022-07-30T21:46:00.122Z,98292.97
2022-07-30T21:48:30.577Z,98284.59
2022-07-30T21:50:58.413Z,98277.31
2022-07-30T21:53:30.014Z,98276.66
2022-07-30T21:56:12.335Z,98283.88
2022-07-30T21:58:38.993Z,98266.66
2022-07-30T22:01:20.173Z,98267.66
2022-07-30T22:04:02.872Z,98285.84
2022-07-30T22:06:35.342Z,98289.28
2022-07-30T22:09:18.087Z,98291.31
2022-07-30T22:11:46.504Z,98283.69
2022-07-30T22:14:13.700Z,98281.88
2022-07-30T22:19:29.204Z,98263.16
2022-07-30T22:21:55.810Z,98280.25
2022-07-30T22:24:29.431Z,98277.47
2022-07-30T22:26:57.024Z,98279.84
2022-07-30T22:29:27.667Z,98284.53
2022-07-30T22:32:03.390Z,98253.47
2022-07-30T22:34:30.695Z,98263.44
2022-07-30T22:36:57.759Z,98281.38
2022-07-30T22:39:32.804Z,98281.53
2022-07-30T22:42:12.546Z,98268.53
2022-07-30T22:44:39.448Z,98268.91
2022-07-30T22:47:21.239Z,98268.56
2022-07-30T22:49:59.029Z,98285.56
2022-07-30T22:52:29.129Z,98275.72
2022-07-30T22:54:58.724Z,98300.38
2022-07-30T22:57:37.788Z,98277.88
2022-07-30T23:00:07.275Z,98298.50
2022-07-30T23:02:38.853Z,98298.88
2022-07-30T23:05:06.578Z,98296.06
2022-07-30T23:07:38.830Z,98292.66
2022-07-30T23:10:16.966Z,98295.34
2022-07-30T23:12:32.859Z,98293.25
2022-07-30T23:12:47.283Z,98291.56
2022-07-30T23:15:14.807Z,98294.03
2022-07-30T23:17:41.614Z,98275.28
2022-07-30T23:20:11.054Z,98272.78
2022-07-30T23:22:38.174Z,98287.13
2022-07-30T23:25:06.858Z,98297.91
2022-07-30T23:27:34.143Z,98300.59
2022-07-30T23:30:00.714Z,98307.41
2022-07-30T23:32:27.404Z,98286.94
2022-07-30T23:34:54.087Z,98290.78
2022-07-30T23:37:20.755Z,98319.09
2022-07-30T23:39:47.345Z,98296.06
2022-07-30T23:42:14.021Z,98301.22
2022-07-30T23:44:40.807Z,98310.91
2022-07-30T23:47:07.455Z,98300.47
2022-07-30T23:49:34.055Z,98303.28
2022-07-30T23:52:00.602Z,98316.56
2022-07-30T23:54:28.868Z,98322.53
2022-07-30T23:56:56.351Z,98316.91
2022-07-30T23:59:36.945Z,98316.66
